createdAt,value
2023-05-08T00:02:42.667Z,10.20
2023-05-08T00:07:46.384Z,11.00
2023-05-08T00:12:49.537Z,12.20
2023-05-08T00:17:52.729Z,12.00
2023-05-08T00:22:57.028Z,10.00
2023-05-08T00:28:01.175Z,10.70
2023-05-08T00:33:04.839Z,14.20
2023-05-08T00:38:07.986Z,10.00
2023-05-08T00:43:11.206Z,11.10
2023-05-08T00:48:14.411Z,9.20
2023-05-08T00:53:19.418Z,9.00
2023-05-08T00:58:27.386Z,10.20
2023-05-08T01:03:36.285Z,9.50
2023-05-08T01:08:39.937Z,8.10
2023-05-08T01:14:04.858Z,6.30
2023-05-08T01:19:53.224Z,10.60
2023-05-08T01:25:58.307Z,9.50
2023-05-08T01:31:22.618Z,8.70
2023-05-08T01:36:39.931Z,7.60
2023-05-08T01:41:54.102Z,9.60
2023-05-08T01:46:59.645Z,10.70
2023-05-08T01:52:14.233Z,12.80
2023-05-08T01:57:20.993Z,10.00
2023-05-08T02:02:26.350Z,12.30
2023-05-08T02:07:29.600Z,10.00
2023-05-08T02:12:34.421Z,14.00
2023-05-08T02:17:41.130Z,10.50
2023-05-08T02:22:49.300Z,8.70
2023-05-08T02:27:55.504Z,11.10
2023-05-08T02:33:01.402Z,12.10
2023-05-08T02:38:11.061Z,15.10
2023-05-08T02:43:14.587Z,15.80
2023-05-08T02:48:33.564Z,17.90
2023-05-08T02:53:48.088Z,13.70
2023-05-08T02:59:02.707Z,13.00
2023-05-08T03:04:11.077Z,9.50
2023-05-08T03:09:21.678Z,13.90
2023-05-08T03:14:29.434Z,9.70
2023-05-08T03:19:39.509Z,25.30
2023-05-08T03:24:46.171Z,15.60
2023-05-08T03:29:52.480Z,9.90
2023-05-08T03:34:59.873Z,8.00
2023-05-08T03:40:04.039Z,8.00
2023-05-08T03:45:11.049Z,11.30
2023-05-08T03:50:15.405Z,22.40
2023-05-08T03:55:18.551Z,11.30
2023-05-08T04:00:43.680Z,13.00
2023-05-08T04:06:16.140Z,20.80
2023-05-08T04:11:32.152Z,28.50
2023-05-08T04:16:46.054Z,23.90
2023-05-08T04:21:51.789Z,16.40
2023-05-08T04:26:55.563Z,13.90
2023-05-08T04:32:01.893Z,12.30
2023-05-08T04:37:08.183Z,10.50
2023-05-08T04:42:11.203Z,10.90
2023-05-08T04:47:14.956Z,10.60
2023-05-08T04:52:18.147Z,12.50
2023-05-08T04:57:21.248Z,13.40
2023-05-08T05:02:27.339Z,10.60
2023-05-08T05:07:30.539Z,14.80
2023-05-08T05:12:33.727Z,17.50
2023-05-08T05:17:36.921Z,23.50
2023-05-08T05:22:40.729Z,18.00
2023-05-08T05:27:45.511Z,23.80
2023-05-08T05:32:49.664Z,18.60
2023-05-08T05:37:52.743Z,23.60
2023-05-08T05:42:56.048Z,18.60
2023-05-08T05:47:59.179Z,22.90
2023-05-08T05:53:02.673Z,28.70
2023-05-08T05:58:05.778Z,26.30
2023-05-08T06:03:10.997Z,26.70
2023-05-08T06:08:14.245Z,30.40
2023-05-08T06:13:17.573Z,20.90
2023-05-08T06:18:24.480Z,26.20
2023-05-08T06:23:27.973Z,20.50
2023-05-08T06:28:31.178Z,24.50
2023-05-08T06:33:34.282Z,25.90
2023-05-08T06:38:37.617Z,23.00
2023-05-08T06:43:41.022Z,19.50
2023-05-08T06:48:44.224Z,18.70
2023-05-08T06:53:47.324Z,19.40
2023-05-08T06:59:00.919Z,17.30
2023-05-08T07:04:11.039Z,20.00
2023-05-08T07:09:14.461Z,12.30
2023-05-08T07:14:17.682Z,11.90
2023-05-08T07:19:22.577Z,8.20
2023-05-08T07:24:26.039Z,7.90
2023-05-08T07:29:29.450Z,10.00
2023-05-08T07:34:35.095Z,7.10
2023-05-08T07:39:38.215Z,6.50
2023-05-08T07:44:53.769Z,6.50
2023-05-08T07:49:58.474Z,4.10
2023-05-08T07:55:01.682Z,6.00
2023-05-08T08:00:09.390Z,4.20
2023-05-08T08:05:13.239Z,4.50
2023-05-08T08:10:16.820Z,4.10
2023-05-08T08:15:23.146Z,4.70
2023-05-08T08:20:26.318Z,6.60
2023-05-08T08:25:29.999Z,3.80
2023-05-08T08:30:33.242Z,4.20
2023-05-08T08:35:36.463Z,5.10
2023-05-08T08:40:41.765Z,4.70
2023-05-08T08:45:45.634Z,5.20
2023-05-08T08:50:57.543Z,3.90
2023-05-08T08:56:04.251Z,4.10
2023-05-08T09:01:14.883Z,4.00
2023-05-08T09:06:19.776Z,5.30
2023-05-08T09:11:24.641Z,3.30
2023-05-08T09:16:28.880Z,5.80
2023-05-08T09:21:32.885Z,3.40
2023-05-08T09:26:39.869Z,5.20
2023-05-08T09:31:52.688Z,4.10
2023-05-08T09:37:05.745Z,7.10
2023-05-08T09:42:09.605Z,5.60
2023-05-08T09:47:20.125Z,2.80
2023-05-08T09:52:24.480Z,4.40
2023-05-08T09:57:29.431Z,4.80
2023-05-08T10:02:33.195Z,4.30
2023-05-08T10:07:39.338Z,4.40
2023-05-08T10:12:42.836Z,4.30
2023-05-08T10:17:58.425Z,9.00
2023-05-08T10:23:03.910Z,4.00
2023-05-08T10:28:18.696Z,4.40
2023-05-08T10:33:32.185Z,4.00
2023-05-08T10:38:38.035Z,6.10
2023-05-08T10:43:44.314Z,5.60
2023-05-08T10:49:24.992Z,4.60
2023-05-08T10:54:54.206Z,3.90
2023-05-08T10:59:57.530Z,5.30
2023-05-08T11:05:18.423Z,4.50
2023-05-08T11:10:23.045Z,3.80
2023-05-08T11:15:41.752Z,5.30
2023-05-08T11:21:15.705Z,5.50
2023-05-08T11:26:18.799Z,3.60
2023-05-08T11:31:22.245Z,4.70
2023-05-08T11:36:26.035Z,2.70
2023-05-08T11:41:29.225Z,4.50
2023-05-08T11:46:51.396Z,3.30
2023-05-08T11:51:58.804Z,11.60
2023-05-08T12:02:09.113Z,2.70
2023-05-08T12:07:13.230Z,5.70
2023-05-08T12:12:16.539Z,4.00
2023-05-08T12:17:20.127Z,3.50
2023-05-08T12:22:23.499Z,3.60
2023-05-08T12:27:27.306Z,2.80
2023-05-08T12:32:30.749Z,3.10
2023-05-08T12:37:34.122Z,4.30
2023-05-08T12:42:50.214Z,3.90
2023-05-08T12:47:58.884Z,2.70
2023-05-08T12:53:18.502Z,3.90
2023-05-08T12:58:27.045Z,4.10
2023-05-08T13:03:31.326Z,2.80
2023-05-08T13:08:39.366Z,5.10
2023-05-08T13:13:42.475Z,4.60
2023-05-08T13:18:45.974Z,63.90
2023-05-08T13:23:49.121Z,3.40
2023-05-08T13:28:54.571Z,2.30
2023-05-08T13:33:59.385Z,3.60
2023-05-08T13:39:02.599Z,4.40
2023-05-08T13:44:06.123Z,2.60
2023-05-08T13:49:09.219Z,3.00
2023-05-08T13:54:12.323Z,3.00
2023-05-08T13:59:16.249Z,6.00
2023-05-08T14:04:19.656Z,2.90
2023-05-08T14:09:22.770Z,3.30
2023-05-08T14:14:26.073Z,3.70
2023-05-08T14:19:29.391Z,3.10
2023-05-08T14:24:33.004Z,8.30
2023-05-08T14:29:36.526Z,5.50
2023-05-08T14:34:39.628Z,5.70
2023-05-08T14:39:42.840Z,3.90
2023-05-08T14:44:46.277Z,2.20
2023-05-08T14:49:49.565Z,6.70
2023-05-08T14:54:53.954Z,4.70
2023-05-08T14:59:57.413Z,4.20
2023-05-08T15:05:00.555Z,3.50
2023-05-08T15:10:04.755Z,3.90
2023-05-08T15:15:08.405Z,3.40
2023-05-08T15:20:11.997Z,7.00
2023-05-08T15:25:41.107Z,3.00
2023-05-08T15:30:47.286Z,14.50
2023-05-08T15:35:49.264Z,17.80
2023-05-08T15:40:51.083Z,3.70
2023-05-08T15:45:53.010Z,6.80
2023-05-08T15:50:55.102Z,11.90
2023-05-08T15:55:57.415Z,4.80
2023-05-08T16:00:59.595Z,3.20
2023-05-08T16:06:01.594Z,7.70
2023-05-08T16:11:03.958Z,5.60
2023-05-08T16:16:06.178Z,6.80
2023-05-08T16:21:17.150Z,5.70
2023-05-08T16:26:19.942Z,4.70
2023-05-08T16:31:22.018Z,2.00
2023-05-08T16:36:23.689Z,7.80
2023-05-08T16:41:27.400Z,5.30
2023-05-08T16:46:30.438Z,4.10
2023-05-08T16:51:32.583Z,9.60
2023-05-08T16:56:34.572Z,10.60
2023-05-08T17:01:36.518Z,10.70
2023-05-08T17:06:42.537Z,16.50
2023-05-08T17:11:44.408Z,8.90
2023-05-08T17:16:46.431Z,13.80
2023-05-08T17:21:48.689Z,7.70
2023-05-08T17:26:50.572Z,10.20
2023-05-08T17:31:52.542Z,7.80
2023-05-08T17:36:55.089Z,8.10
2023-05-08T17:41:57.195Z,16.80
2023-05-08T17:46:59.072Z,19.50
2023-05-08T17:52:03.000Z,16.20
2023-05-08T17:57:04.881Z,14.60
2023-05-08T18:02:07.245Z,19.10
2023-05-08T18:07:09.071Z,17.00
2023-05-08T18:12:11.129Z,8.30
2023-05-08T18:17:16.486Z,7.80
2023-05-08T18:22:18.365Z,14.00
2023-05-08T18:27:20.163Z,12.30
2023-05-08T18:32:22.130Z,10.60
2023-05-08T18:37:24.527Z,10.80
2023-05-08T18:42:26.486Z,14.00
2023-05-08T18:47:28.432Z,13.00
2023-05-08T18:52:30.365Z,28.50
2023-05-08T18:57:32.332Z,32.80
2023-05-08T19:02:34.422Z,26.10
2023-05-08T19:07:37.212Z,12.10
2023-05-08T19:12:39.423Z,10.10
2023-05-08T19:17:42.213Z,10.10
2023-05-08T19:22:44.166Z,5.50
2023-05-08T19:27:46.251Z,5.30
2023-05-08T19:32:49.365Z,27.90
2023-05-08T19:37:51.234Z,41.10
2023-05-08T19:42:53.225Z,42.00
2023-05-08T19:47:55.020Z,42.00
2023-05-08T19:52:57.069Z,36.80
2023-05-08T19:57:58.844Z,38.10
2023-05-08T20:03:00.698Z,32.00
2023-05-08T20:08:02.681Z,25.30
2023-05-08T20:13:05.207Z,24.90
2023-05-08T20:18:07.521Z,40.20
2023-05-08T20:23:09.665Z,34.00
2023-05-08T20:28:11.971Z,22.00
2023-05-08T20:33:14.034Z,13.40
2023-05-08T20:38:15.996Z,9.40
2023-05-08T20:43:19.222Z,7.60
2023-05-08T20:48:21.301Z,6.60
2023-05-08T20:53:23.205Z,14.10
2023-05-08T20:58:25.058Z,16.40
2023-05-08T21:03:27.276Z,18.30
2023-05-08T21:08:29.017Z,33.60
2023-05-08T21:13:31.620Z,30.30
2023-05-08T21:18:33.390Z,30.80
2023-05-08T21:23:35.171Z,34.10
2023-05-08T21:28:36.946Z,25.70
2023-05-08T21:33:38.924Z,16.70
2023-05-08T21:38:41.695Z,18.30
2023-05-08T21:43:43.807Z,14.90
2023-05-08T21:48:45.795Z,12.20
2023-05-08T21:53:47.761Z,10.20
2023-05-08T21:58:49.751Z,16.70
2023-05-08T22:03:51.652Z,16.10
2023-05-08T22:08:53.814Z,14.90
2023-05-08T22:13:55.591Z,15.30
2023-05-08T22:18:57.461Z,13.40
2023-05-08T22:23:59.549Z,17.90
2023-05-08T22:29:01.417Z,15.60
2023-05-08T22:34:03.192Z,14.90
2023-05-08T22:39:07.542Z,27.30
2023-05-08T22:44:10.463Z,31.80
2023-05-08T22:49:12.522Z,20.10
2023-05-08T22:54:14.287Z,24.90
2023-05-08T22:59:16.170Z,16.90
2023-05-08T23:04:18.224Z,15.00
2023-05-08T23:09:20.231Z,14.50
2023-05-08T23:14:22.006Z,13.90
2023-05-08T23:19:23.779Z,10.50
2023-05-08T23:24:25.796Z,9.60
2023-05-08T23:29:28.660Z,8.50
2023-05-08T23:34:30.448Z,10.20
2023-05-08T23:39:37.327Z,15.50
2023-05-08T23:44:39.208Z,13.90
2023-05-08T23:49:41.056Z,15.00
2023-05-08T23:54:42.763Z,26.00
2023-05-08T23:59:44.632Z,24.00
